createdAt,value
2024-01-30T00:00:48.041Z,3.95
2024-01-30T00:01:49.995Z,4.15
2024-01-30T00:02:51.848Z,4.10
2024-01-30T00:04:55.402Z,3.50
2024-01-30T00:05:59.609Z,4.13
2024-01-30T00:07:01.797Z,4.10
2024-01-30T00:08:04.280Z,4.40
2024-01-30T00:09:06.265Z,3.95
2024-01-30T00:10:09.194Z,4.53
2024-01-30T00:11:11.096Z,4.07
2024-01-30T00:13:15.871Z,3.75
2024-01-30T00:14:17.996Z,4.10
2024-01-30T00:15:21.862Z,4.00
2024-01-30T00:16:26.816Z,3.80
2024-01-30T00:17:28.704Z,4.05
2024-01-30T00:18:30.541Z,3.95
2024-01-30T00:19:33.126Z,3.72
2024-01-30T00:20:34.993Z,4.00
2024-01-30T00:22:38.704Z,3.75
2024-01-30T00:23:40.666Z,4.00
2024-01-30T00:24:42.474Z,3.80
2024-01-30T00:25:44.263Z,3.70
2024-01-30T00:26:48.454Z,3.80
2024-01-30T00:27:50.217Z,3.80
2024-01-30T00:28:54.393Z,4.13
2024-01-30T00:29:56.301Z,3.47
2024-01-30T00:30:58.081Z,4.03
2024-01-30T00:32:02.092Z,4.15
2024-01-30T00:33:05.838Z,4.00
2024-01-30T00:34:07.850Z,3.70
2024-01-30T00:35:11.639Z,3.95
2024-01-30T00:36:13.658Z,3.90
2024-01-30T00:37:17.918Z,3.83
2024-01-30T00:38:20.617Z,3.95
2024-01-30T00:39:24.802Z,4.28
2024-01-30T00:40:26.590Z,3.83
2024-01-30T00:41:28.414Z,4.05
2024-01-30T00:42:30.645Z,3.83
2024-01-30T00:43:35.000Z,4.40
2024-01-30T00:44:39.767Z,4.50
2024-01-30T00:45:41.732Z,3.90
2024-01-30T00:46:43.511Z,4.10
2024-01-30T00:48:49.717Z,3.72
2024-01-30T00:49:51.683Z,4.07
2024-01-30T00:50:53.570Z,4.00
2024-01-30T00:51:55.676Z,3.97
2024-01-30T00:52:57.397Z,3.70
2024-01-30T00:55:01.425Z,3.90
2024-01-30T00:56:03.398Z,3.85
2024-01-30T00:57:08.700Z,3.95
2024-01-30T00:58:10.622Z,3.80
2024-01-30T00:59:13.031Z,3.88
2024-01-30T01:00:18.203Z,3.92
2024-01-30T01:01:20.396Z,4.05
2024-01-30T01:02:24.923Z,3.90
2024-01-30T01:03:28.793Z,3.65
2024-01-30T01:04:30.700Z,4.07
2024-01-30T01:05:32.544Z,3.95
2024-01-30T01:06:34.339Z,3.90
2024-01-30T01:07:37.202Z,3.70
2024-01-30T01:08:39.011Z,3.72
2024-01-30T01:09:40.824Z,4.47
2024-01-30T01:10:42.713Z,4.00
2024-01-30T01:11:44.527Z,3.90
2024-01-30T01:12:46.855Z,4.07
2024-01-30T01:13:49.084Z,3.67
2024-01-30T01:14:50.860Z,4.20
2024-01-30T01:15:52.611Z,3.80
2024-01-30T01:16:54.500Z,3.70
2024-01-30T01:17:56.404Z,4.07
2024-01-30T01:18:58.301Z,3.80
2024-01-30T01:20:00.323Z,3.80
2024-01-30T01:21:02.277Z,3.80
2024-01-30T01:22:04.512Z,4.50
2024-01-30T01:23:07.290Z,4.50
2024-01-30T01:24:08.998Z,3.70
2024-01-30T01:26:13.539Z,3.67
2024-01-30T01:28:17.032Z,4.10
2024-01-30T01:29:19.815Z,3.83
2024-01-30T01:30:23.102Z,4.43
2024-01-30T01:31:26.313Z,4.10
2024-01-30T01:32:28.253Z,3.50
2024-01-30T01:33:30.441Z,3.70
2024-01-30T01:34:32.386Z,4.32
2024-01-30T01:35:36.619Z,3.90
2024-01-30T01:36:40.793Z,3.40
2024-01-30T01:37:42.575Z,3.80
2024-01-30T01:38:46.870Z,4.03
2024-01-30T01:39:48.793Z,4.05
2024-01-30T01:40:50.602Z,4.00
2024-01-30T01:41:52.660Z,4.32
2024-01-30T01:42:57.560Z,3.88
2024-01-30T01:44:00.566Z,4.38
2024-01-30T01:45:03.324Z,4.20
2024-01-30T01:46:08.401Z,3.97
2024-01-30T01:47:10.378Z,4.10
2024-01-30T01:48:13.498Z,3.97
2024-01-30T01:49:15.962Z,4.18
2024-01-30T01:50:22.497Z,3.95
2024-01-30T01:51:30.789Z,3.47
2024-01-30T01:52:32.768Z,3.80
2024-01-30T01:53:37.592Z,3.72
2024-01-30T01:54:41.905Z,3.88
2024-01-30T01:55:46.781Z,3.80
2024-01-30T01:56:48.640Z,3.65
2024-01-30T01:57:51.253Z,3.55
2024-01-30T01:58:56.290Z,3.58
2024-01-30T01:59:58.049Z,3.80
2024-01-30T02:12:42.146Z,3.90
2024-01-30T02:13:44.126Z,4.18
2024-01-30T02:15:54.283Z,3.60
2024-01-30T02:16:56.211Z,3.60
2024-01-30T02:18:59.834Z,3.30
2024-01-30T02:20:02.198Z,3.70
2024-01-30T02:21:07.338Z,3.38
2024-01-30T02:22:10.383Z,3.63
2024-01-30T02:23:13.889Z,3.50
2024-01-30T02:24:15.661Z,3.83
2024-01-30T02:25:17.520Z,3.60
2024-01-30T02:26:19.402Z,3.47
2024-01-30T02:28:23.028Z,3.22
2024-01-30T02:29:24.999Z,3.70
2024-01-30T02:30:27.120Z,3.55
2024-01-30T02:31:28.888Z,3.45
2024-01-30T02:32:33.357Z,3.70
2024-01-30T02:33:35.335Z,3.75
2024-01-30T02:34:37.232Z,3.58
2024-01-30T02:35:39.128Z,4.10
2024-01-30T02:36:43.891Z,3.80
2024-01-30T02:37:48.278Z,3.25
2024-01-30T02:38:50.159Z,3.78
2024-01-30T02:39:54.930Z,3.60
2024-01-30T02:40:57.618Z,3.30
2024-01-30T02:41:59.627Z,3.53
2024-01-30T02:44:04.976Z,3.70
2024-01-30T02:45:10.325Z,3.63
2024-01-30T02:46:12.152Z,3.30
2024-01-30T02:47:14.076Z,3.78
2024-01-30T02:48:15.957Z,3.80
2024-01-30T02:49:17.879Z,4.00
2024-01-30T02:50:19.703Z,3.53
2024-01-30T02:51:23.782Z,3.67
2024-01-30T02:52:27.626Z,3.85
2024-01-30T02:54:31.925Z,3.60
2024-01-30T02:55:38.408Z,3.72
2024-01-30T02:56:40.713Z,3.22
2024-01-30T02:57:42.727Z,3.42
2024-01-30T02:58:44.474Z,3.50
2024-01-30T03:00:48.201Z,3.42
2024-01-30T03:01:52.352Z,3.25
2024-01-30T03:02:54.183Z,3.45
2024-01-30T03:03:56.037Z,3.70
2024-01-30T03:06:02.183Z,3.28
2024-01-30T03:07:04.831Z,3.00
2024-01-30T03:08:09.179Z,3.42
2024-01-30T03:09:11.740Z,3.33
2024-01-30T03:10:13.766Z,3.20
2024-01-30T03:11:15.626Z,3.08
2024-01-30T03:12:17.472Z,3.35
2024-01-30T03:13:19.407Z,3.60
2024-01-30T03:14:21.444Z,3.30
2024-01-30T03:15:24.086Z,3.38
2024-01-30T03:16:25.999Z,3.05
2024-01-30T03:17:27.988Z,3.25
2024-01-30T03:18:31.797Z,3.40
2024-01-30T03:19:33.638Z,3.45
2024-01-30T03:20:36.372Z,3.08
2024-01-30T03:21:38.172Z,3.15
2024-01-30T03:22:39.948Z,2.97
2024-01-30T03:24:45.333Z,2.72
2024-01-30T03:26:48.957Z,2.80
2024-01-30T03:27:50.713Z,2.53
2024-01-30T03:28:53.594Z,2.53
2024-01-30T03:29:55.445Z,2.85
2024-01-30T03:30:57.260Z,3.28
2024-01-30T03:31:59.141Z,2.85
2024-01-30T03:33:00.887Z,3.20
2024-01-30T03:34:03.431Z,2.70
2024-01-30T03:35:05.928Z,2.60
2024-01-30T03:36:09.432Z,2.85
2024-01-30T03:37:11.219Z,2.85
2024-01-30T03:38:12.993Z,2.67
2024-01-30T03:40:16.804Z,2.60
2024-01-30T03:41:18.601Z,2.90
2024-01-30T03:43:22.078Z,3.05
2024-01-30T03:44:23.865Z,3.10
2024-01-30T03:46:27.763Z,2.75
2024-01-30T03:47:29.746Z,3.22
2024-01-30T03:48:31.627Z,2.75
2024-01-30T03:49:33.507Z,3.00
2024-01-30T03:50:35.393Z,3.08
2024-01-30T03:52:38.779Z,2.70
2024-01-30T03:53:41.490Z,2.70
2024-01-30T03:54:43.214Z,2.95
2024-01-30T03:56:46.849Z,2.80
2024-01-30T03:57:48.534Z,2.67
2024-01-30T03:59:51.997Z,2.90
2024-01-30T04:00:58.578Z,3.10
2024-01-30T04:02:01.418Z,2.58
2024-01-30T04:03:05.603Z,2.92
2024-01-30T04:04:07.449Z,2.88
2024-01-30T04:05:09.604Z,3.13
2024-01-30T04:06:11.813Z,2.80
2024-01-30T04:07:13.672Z,2.60
2024-01-30T04:08:15.376Z,2.88
2024-01-30T04:09:17.184Z,2.72
2024-01-30T04:11:22.859Z,2.63
2024-01-30T04:12:25.549Z,2.53
2024-01-30T04:13:31.557Z,2.55
2024-01-30T04:14:33.278Z,2.85
2024-01-30T04:16:37.692Z,3.10
2024-01-30T04:18:41.303Z,3.03
2024-01-30T04:19:43.215Z,2.55
2024-01-30T04:20:46.366Z,3.05
2024-01-30T04:21:48.140Z,2.70
2024-01-30T04:23:54.983Z,3.20
2024-01-30T04:24:56.841Z,3.05
2024-01-30T04:25:58.653Z,2.90
2024-01-30T04:28:02.114Z,3.17
2024-01-30T04:29:03.949Z,3.40
2024-01-30T04:30:06.353Z,3.10
2024-01-30T04:31:08.184Z,3.17
2024-01-30T04:32:11.128Z,2.80
2024-01-30T04:33:15.844Z,3.05
2024-01-30T04:34:17.743Z,2.60
2024-01-30T04:35:21.904Z,3.30
2024-01-30T04:36:23.810Z,2.88
2024-01-30T04:37:26.252Z,3.05
2024-01-30T04:38:30.630Z,3.38
2024-01-30T04:39:34.245Z,3.00
2024-01-30T04:40:36.007Z,2.83
2024-01-30T04:42:39.415Z,3.40
2024-01-30T04:43:41.296Z,3.10
2024-01-30T04:45:44.831Z,3.13
2024-01-30T04:46:46.667Z,3.15
2024-01-30T04:47:48.666Z,2.92
2024-01-30T04:48:50.472Z,3.63
2024-01-30T04:49:53.071Z,3.30
2024-01-30T04:50:57.687Z,3.45
2024-01-30T04:52:01.801Z,2.95
2024-01-30T04:53:03.710Z,2.70
2024-01-30T04:54:05.464Z,3.40
2024-01-30T05:02:20.520Z,2.93
2024-01-30T05:03:24.030Z,3.20
2024-01-30T05:04:25.951Z,2.90
2024-01-30T05:05:27.747Z,2.60
2024-01-30T05:06:29.808Z,2.95
2024-01-30T05:07:31.794Z,2.92
2024-01-30T05:08:33.716Z,3.25
2024-01-30T05:09:37.935Z,2.95
2024-01-30T05:10:39.787Z,2.95
2024-01-30T05:11:42.179Z,2.67
2024-01-30T05:12:44.023Z,2.70
2024-01-30T05:14:47.502Z,2.53
2024-01-30T05:15:51.574Z,3.00
2024-01-30T05:16:54.006Z,3.00
2024-01-30T05:17:56.420Z,2.80
2024-01-30T05:19:01.315Z,3.10
2024-01-30T05:20:07.149Z,2.95
2024-01-30T05:21:11.919Z,3.10
2024-01-30T05:22:19.218Z,3.53
2024-01-30T05:23:20.943Z,2.80
2024-01-30T05:25:29.754Z,3.20
2024-01-30T05:26:31.499Z,3.30
2024-01-30T05:28:34.969Z,2.72
2024-01-30T05:29:36.945Z,2.80
2024-01-30T05:30:38.711Z,2.83
2024-01-30T05:31:40.556Z,3.13
2024-01-30T05:33:44.539Z,3.00
2024-01-30T05:34:46.532Z,2.83
2024-01-30T05:36:49.958Z,2.85
2024-01-30T05:37:52.129Z,3.10
2024-01-30T05:38:54.103Z,2.97
2024-01-30T05:39:55.893Z,2.90
2024-01-30T05:41:00.191Z,3.10
2024-01-30T05:42:01.977Z,2.80
2024-01-30T05:43:04.086Z,2.97
2024-01-30T05:44:10.751Z,3.03
2024-01-30T05:45:12.464Z,2.42
2024-01-30T05:46:16.310Z,2.90
2024-01-30T05:47:18.127Z,2.83
2024-01-30T05:49:21.547Z,2.60
2024-01-30T05:50:27.526Z,2.75
2024-01-30T05:51:29.638Z,3.10
2024-01-30T05:52:31.419Z,2.72
2024-01-30T05:53:33.275Z,2.95
2024-01-30T05:54:35.347Z,3.10
2024-01-30T05:55:39.551Z,2.75
2024-01-30T05:56:41.304Z,3.30
2024-01-30T05:57:45.235Z,3.05
2024-01-30T05:59:48.991Z,2.70
2024-01-30T06:00:51.033Z,2.67
2024-01-30T06:01:55.171Z,3.20
2024-01-30T06:02:57.046Z,3.13
2024-01-30T06:05:00.587Z,2.95
2024-01-30T06:06:04.911Z,2.72
2024-01-30T06:07:07.574Z,3.22
2024-01-30T06:08:09.492Z,2.72
2024-01-30T06:09:11.348Z,3.05
2024-01-30T06:11:14.870Z,4.50
2024-01-30T06:12:16.772Z,4.15
2024-01-30T06:13:18.950Z,3.30
2024-01-30T06:14:20.784Z,2.97
2024-01-30T06:15:22.606Z,3.42
2024-01-30T06:16:30.620Z,3.03
2024-01-30T06:17:32.568Z,3.67
2024-01-30T06:18:34.610Z,2.90
2024-01-30T06:19:36.488Z,3.35
2024-01-30T06:20:40.435Z,3.10
2024-01-30T06:21:42.469Z,2.90
2024-01-30T06:22:44.569Z,3.10
2024-01-30T06:23:47.550Z,2.92
2024-01-30T06:24:49.832Z,3.30
2024-01-30T06:25:51.663Z,2.90
2024-01-30T06:26:53.397Z,3.13
2024-01-30T06:27:55.367Z,3.45
2024-01-30T06:28:57.235Z,3.38
2024-01-30T06:29:58.914Z,3.50
2024-01-30T06:31:02.617Z,3.63
2024-01-30T06:32:04.766Z,3.83
2024-01-30T06:33:06.868Z,3.63
2024-01-30T06:34:13.193Z,3.35
2024-01-30T06:35:15.073Z,3.60
2024-01-30T06:36:16.825Z,3.83
2024-01-30T06:37:18.751Z,3.90
2024-01-30T06:38:22.826Z,3.85
2024-01-30T06:39:24.573Z,4.15
2024-01-30T06:40:26.688Z,4.15
2024-01-30T06:41:28.577Z,3.80
2024-01-30T06:42:30.314Z,3.40
2024-01-30T06:43:32.292Z,3.50
2024-01-30T06:44:33.972Z,3.58
2024-01-30T06:46:40.802Z,3.25
2024-01-30T06:47:42.797Z,3.25
2024-01-30T06:48:46.130Z,3.33
2024-01-30T06:49:48.005Z,3.10
2024-01-30T06:52:54.160Z,2.90
2024-01-30T06:53:56.029Z,2.83
2024-01-30T06:54:57.787Z,2.63
2024-01-30T06:55:59.828Z,3.00
2024-01-30T06:57:01.826Z,2.83
2024-01-30T06:58:05.713Z,3.28
2024-01-30T06:59:07.773Z,2.70
2024-01-30T07:00:09.893Z,3.03
2024-01-30T07:01:11.675Z,2.50
2024-01-30T07:02:16.096Z,3.10
2024-01-30T07:03:17.840Z,2.70
2024-01-30T07:05:23.077Z,2.80
2024-01-30T07:06:24.919Z,2.92
2024-01-30T07:07:26.812Z,4.28
2024-01-30T07:08:28.936Z,12.60
2024-01-30T07:09:31.056Z,11.27
2024-01-30T07:10:32.974Z,11.02
2024-01-30T07:11:34.775Z,9.68
2024-01-30T07:13:40.653Z,10.40
2024-01-30T07:14:42.548Z,34.85
2024-01-30T07:15:44.489Z,29.73
2024-01-30T07:16:48.422Z,23.30
2024-01-30T07:17:50.187Z,13.68
2024-01-30T07:19:54.110Z,13.18
2024-01-30T07:20:56.014Z,28.60
2024-01-30T07:23:00.071Z,21.98
2024-01-30T07:24:01.976Z,17.40
2024-01-30T07:25:04.401Z,13.07
2024-01-30T07:26:07.932Z,5.57
2024-01-30T07:27:09.839Z,4.57
2024-01-30T07:28:13.060Z,4.20
2024-01-30T07:29:14.792Z,6.05
2024-01-30T07:31:21.985Z,5.20
2024-01-30T07:32:23.767Z,5.25
2024-01-30T07:33:25.652Z,5.10
2024-01-30T07:34:28.852Z,7.00
2024-01-30T07:35:30.974Z,8.50
2024-01-30T07:36:35.947Z,7.35
2024-01-30T07:37:40.273Z,6.78
2024-01-30T07:38:44.405Z,5.95
2024-01-30T07:39:46.307Z,5.68
2024-01-30T07:40:48.196Z,4.70
2024-01-30T07:41:50.154Z,4.18
2024-01-30T07:42:52.309Z,3.95
2024-01-30T07:43:54.894Z,4.18
2024-01-30T07:44:58.878Z,4.90
2024-01-30T07:46:03.113Z,4.30
2024-01-30T07:47:07.493Z,4.00
2024-01-30T07:48:09.429Z,3.85
2024-01-30T07:49:11.558Z,3.58
2024-01-30T07:50:13.871Z,3.80
2024-01-30T07:51:15.689Z,3.70
2024-01-30T07:52:17.500Z,2.97
2024-01-30T07:54:21.090Z,3.60
2024-01-30T07:55:28.623Z,3.15
2024-01-30T07:56:30.836Z,3.38
2024-01-30T07:57:32.646Z,3.03
2024-01-30T07:58:34.756Z,3.13
2024-01-30T07:59:38.790Z,3.15
2024-01-30T08:02:15.000Z,3.08
2024-01-30T08:03:18.727Z,3.15
2024-01-30T08:04:23.216Z,3.20
2024-01-30T08:05:25.454Z,2.95
2024-01-30T08:06:27.463Z,3.50
2024-01-30T08:07:30.984Z,3.45
2024-01-30T08:08:32.815Z,3.53
2024-01-30T08:09:37.564Z,3.50
2024-01-30T08:10:39.443Z,3.00
2024-01-30T08:11:41.398Z,2.80
2024-01-30T08:12:43.306Z,3.20
2024-01-30T08:13:45.065Z,3.08
2024-01-30T08:15:50.876Z,3.28
2024-01-30T08:16:52.683Z,3.40
2024-01-30T08:19:02.402Z,3.28
2024-01-30T08:20:05.903Z,3.30
2024-01-30T08:21:10.813Z,3.45
2024-01-30T08:22:13.682Z,3.10
2024-01-30T08:23:15.504Z,3.35
2024-01-30T08:24:17.413Z,3.67
2024-01-30T08:25:19.593Z,3.90
2024-01-30T08:26:24.059Z,3.58
2024-01-30T08:27:25.766Z,3.95
2024-01-30T08:28:30.304Z,4.18
2024-01-30T08:29:32.096Z,4.00
2024-01-30T08:31:35.665Z,4.18
2024-01-30T08:32:37.462Z,4.30
2024-01-30T08:33:45.134Z,4.28
2024-01-30T08:34:47.830Z,4.35
2024-01-30T08:35:52.073Z,4.90
2024-01-30T08:36:54.060Z,4.05
2024-01-30T08:37:58.988Z,4.32
2024-01-30T08:39:02.862Z,4.28
2024-01-30T08:40:09.581Z,4.38
2024-01-30T08:41:11.647Z,4.07
2024-01-30T08:42:15.793Z,4.28
2024-01-30T08:43:20.074Z,4.35
2024-01-30T08:44:22.193Z,4.20
2024-01-30T08:45:26.017Z,4.00
2024-01-30T08:47:29.494Z,4.18
2024-01-30T08:49:33.724Z,4.20
2024-01-30T08:50:37.848Z,4.22
2024-01-30T08:51:41.791Z,3.78
2024-01-30T08:52:43.524Z,3.42
2024-01-30T08:53:45.315Z,4.30
2024-01-30T08:55:51.393Z,3.80
2024-01-30T08:57:56.216Z,3.55
2024-01-30T08:59:00.488Z,3.85
2024-01-30T09:00:07.777Z,3.92
2024-01-30T09:01:10.633Z,3.83
2024-01-30T09:02:17.549Z,3.97
2024-01-30T09:03:20.518Z,3.83
2024-01-30T09:04:26.072Z,3.60
2024-01-30T09:05:28.363Z,3.60
2024-01-30T09:06:30.381Z,4.07
2024-01-30T09:07:32.216Z,3.72
2024-01-30T09:08:34.860Z,4.32
2024-01-30T09:09:36.670Z,3.75
2024-01-30T09:11:40.367Z,3.63
2024-01-30T09:13:44.714Z,3.70
2024-01-30T09:14:46.437Z,3.83
2024-01-30T09:16:50.376Z,5.38
2024-01-30T09:17:52.238Z,5.00
2024-01-30T09:18:56.604Z,5.10
2024-01-30T09:19:58.356Z,4.90
2024-01-30T09:22:01.913Z,5.35
2024-01-30T09:23:03.953Z,4.82
2024-01-30T09:24:08.776Z,4.82
2024-01-30T09:25:11.073Z,5.97
2024-01-30T09:26:13.846Z,5.20
2024-01-30T09:27:17.945Z,5.47
2024-01-30T09:28:19.997Z,5.50
2024-01-30T09:29:22.881Z,5.13
2024-01-30T09:30:24.665Z,4.70
2024-01-30T09:31:26.663Z,4.80
2024-01-30T09:32:28.536Z,4.50
2024-01-30T09:33:30.304Z,4.80
2024-01-30T09:35:34.792Z,5.28
2024-01-30T09:36:36.565Z,4.57
2024-01-30T09:37:38.452Z,4.15
2024-01-30T09:38:40.390Z,5.32
2024-01-30T09:40:45.505Z,4.75
2024-01-30T09:41:55.619Z,4.80
2024-01-30T09:43:00.950Z,4.43
2024-01-30T09:44:05.203Z,4.88
2024-01-30T09:45:07.688Z,4.72
2024-01-30T09:46:14.210Z,4.90
2024-01-30T09:47:20.083Z,4.55
2024-01-30T09:48:22.861Z,4.50
2024-01-30T09:49:25.826Z,4.53
2024-01-30T09:50:28.892Z,4.15
2024-01-30T09:51:31.870Z,4.05
2024-01-30T09:52:34.221Z,4.65
2024-01-30T09:53:37.778Z,4.30
2024-01-30T09:54:39.865Z,4.07
2024-01-30T09:55:44.440Z,4.47
2024-01-30T09:56:46.361Z,4.70
2024-01-30T09:57:48.227Z,4.82
2024-01-30T09:58:49.948Z,5.35
2024-01-30T10:00:57.521Z,4.72
2024-01-30T10:02:02.100Z,4.60
2024-01-30T10:03:04.776Z,4.72
2024-01-30T10:04:08.293Z,4.60
2024-01-30T10:05:16.348Z,4.57
2024-01-30T10:06:19.979Z,4.68
2024-01-30T10:07:23.271Z,5.03
2024-01-30T10:08:27.827Z,4.32
2024-01-30T10:09:35.963Z,4.13
2024-01-30T10:10:38.090Z,4.55
2024-01-30T10:11:39.898Z,4.40
2024-01-30T10:12:44.561Z,5.10
2024-01-30T10:13:47.159Z,4.50
2024-01-30T10:14:51.208Z,4.55
2024-01-30T10:15:54.553Z,4.82
2024-01-30T10:16:56.728Z,4.38
2024-01-30T10:17:58.796Z,4.55
2024-01-30T10:19:00.877Z,4.90
2024-01-30T10:20:06.506Z,4.22
2024-01-30T10:21:11.403Z,4.68
2024-01-30T10:22:15.933Z,4.15
2024-01-30T10:23:18.797Z,4.45
2024-01-30T10:24:25.541Z,4.20
2024-01-30T10:25:30.359Z,5.25
2024-01-30T10:26:35.275Z,4.72
2024-01-30T10:27:37.035Z,5.65
2024-01-30T10:29:43.520Z,4.78
2024-01-30T10:30:59.843Z,4.70
2024-01-30T10:32:07.078Z,4.53
2024-01-30T10:33:08.945Z,4.47
2024-01-30T10:34:16.919Z,4.68
2024-01-30T10:35:25.110Z,4.70
2024-01-30T10:36:30.674Z,4.55
2024-01-30T10:37:34.367Z,4.32
2024-01-30T10:38:38.055Z,4.70
2024-01-30T10:39:41.256Z,4.45
2024-01-30T10:40:44.943Z,4.50
2024-01-30T10:41:49.945Z,4.95
2024-01-30T10:42:56.581Z,4.00
2024-01-30T10:44:05.180Z,4.57
2024-01-30T10:45:15.128Z,3.97
2024-01-30T10:46:21.506Z,4.32
2024-01-30T10:47:28.641Z,4.00
2024-01-30T10:48:33.737Z,4.10
2024-01-30T10:49:36.616Z,3.67
2024-01-30T10:50:47.535Z,3.72
2024-01-30T10:51:57.248Z,4.00
2024-01-30T10:53:01.077Z,3.47
2024-01-30T10:54:08.694Z,3.60
2024-01-30T10:55:13.860Z,3.22
2024-01-30T10:56:17.478Z,3.50
2024-01-30T10:57:19.673Z,3.60
2024-01-30T10:58:22.026Z,3.70
2024-01-30T10:59:25.883Z,3.88
2024-01-30T11:02:14.372Z,3.88
2024-01-30T11:03:18.222Z,3.85
2024-01-30T11:04:20.050Z,3.70
2024-01-30T11:05:31.640Z,3.78
2024-01-30T11:06:42.788Z,3.60
2024-01-30T11:07:44.992Z,3.70
2024-01-30T11:08:47.374Z,3.65
2024-01-30T11:10:04.786Z,3.72
2024-01-30T11:11:10.468Z,3.50
2024-01-30T11:12:13.725Z,2.97
2024-01-30T11:13:15.982Z,3.30
2024-01-30T11:14:18.405Z,3.22
2024-01-30T11:15:20.481Z,3.10
2024-01-30T11:16:22.398Z,2.92
2024-01-30T11:17:29.276Z,3.47
2024-01-30T11:18:32.967Z,3.10
2024-01-30T11:19:38.035Z,2.75
2024-01-30T11:20:47.807Z,3.00
2024-01-30T11:21:51.977Z,3.22
2024-01-30T11:22:57.572Z,2.90
2024-01-30T11:23:59.303Z,3.17
2024-01-30T11:26:03.496Z,4.35
2024-01-30T11:27:10.122Z,4.50
2024-01-30T11:28:18.270Z,4.20
2024-01-30T11:29:20.340Z,4.05
2024-01-30T11:30:32.893Z,3.80
2024-01-30T11:31:34.693Z,3.45
2024-01-30T11:32:39.476Z,3.50
2024-01-30T11:33:41.380Z,4.00
2024-01-30T11:34:45.816Z,3.65
2024-01-30T11:35:48.800Z,3.58
2024-01-30T11:37:00.014Z,3.63
2024-01-30T11:38:03.394Z,3.53
2024-01-30T11:39:05.655Z,3.63
2024-01-30T11:40:10.727Z,3.15
2024-01-30T11:41:12.728Z,3.75
2024-01-30T11:42:15.301Z,3.67
2024-01-30T11:43:18.216Z,3.65
2024-01-30T11:44:21.899Z,3.90
2024-01-30T11:45:23.698Z,3.72
2024-01-30T11:47:28.905Z,3.60
2024-01-30T11:48:31.103Z,3.42
2024-01-30T11:49:33.110Z,3.58
2024-01-30T11:50:35.994Z,3.97
2024-01-30T11:51:41.361Z,3.80
2024-01-30T11:52:44.173Z,3.67
2024-01-30T11:53:45.925Z,3.80
2024-01-30T11:54:48.020Z,3.80
2024-01-30T11:55:54.963Z,3.85
2024-01-30T11:56:57.025Z,3.90
2024-01-30T11:59:02.258Z,4.28
2024-01-30T12:00:11.542Z,4.32
2024-01-30T12:01:14.071Z,4.50
2024-01-30T12:02:19.049Z,4.18
2024-01-30T12:03:20.799Z,4.40
2024-01-30T12:04:22.672Z,4.10
2024-01-30T12:05:28.568Z,4.43
2024-01-30T12:06:30.520Z,4.32
2024-01-30T12:07:33.170Z,4.40
2024-01-30T12:08:35.019Z,4.13
2024-01-30T12:09:39.222Z,4.43
2024-01-30T12:10:41.784Z,4.32
2024-01-30T12:11:47.219Z,4.88
2024-01-30T12:12:51.191Z,4.50
2024-01-30T12:13:56.794Z,4.35
2024-01-30T12:14:58.715Z,4.70
2024-01-30T12:16:02.714Z,4.85
2024-01-30T12:17:08.747Z,4.50
2024-01-30T12:18:10.756Z,5.22
2024-01-30T12:19:21.979Z,4.32
2024-01-30T12:20:24.418Z,5.05
2024-01-30T12:21:26.261Z,4.85
2024-01-30T12:23:30.525Z,4.57
2024-01-30T12:24:33.113Z,4.50
2024-01-30T12:25:35.055Z,4.55
2024-01-30T12:26:39.412Z,5.00
2024-01-30T12:27:44.069Z,4.78
2024-01-30T12:28:50.670Z,4.97
2024-01-30T12:29:58.168Z,5.30
2024-01-30T12:31:06.119Z,5.10
2024-01-30T12:32:07.966Z,5.35
2024-01-30T12:33:11.166Z,5.53
2024-01-30T12:34:18.391Z,4.78
2024-01-30T12:35:24.681Z,4.88
2024-01-30T12:36:27.022Z,5.30
2024-01-30T12:37:30.729Z,4.90
2024-01-30T12:38:32.804Z,5.20
2024-01-30T12:39:36.350Z,4.75
2024-01-30T12:40:41.969Z,4.78
2024-01-30T12:41:44.216Z,5.20
2024-01-30T12:42:51.238Z,4.90
2024-01-30T12:43:53.622Z,5.30
2024-01-30T12:44:58.044Z,5.22
2024-01-30T12:46:02.174Z,5.38
2024-01-30T12:47:04.932Z,5.60
2024-01-30T12:48:10.279Z,5.35
2024-01-30T12:49:12.483Z,5.10
2024-01-30T12:50:16.891Z,5.22
2024-01-30T12:51:20.911Z,5.07
2024-01-30T12:52:23.618Z,5.75
2024-01-30T12:53:25.696Z,5.60
2024-01-30T12:54:29.754Z,5.40
2024-01-30T12:55:31.697Z,5.47
2024-01-30T12:56:34.522Z,5.82
2024-01-30T12:57:36.423Z,5.70
2024-01-30T12:58:38.719Z,5.28
2024-01-30T12:59:40.726Z,5.47
2024-01-30T13:00:44.461Z,6.32
2024-01-30T13:01:46.730Z,5.50
2024-01-30T13:02:49.155Z,5.55
2024-01-30T13:03:53.798Z,5.35
2024-01-30T13:04:58.055Z,5.70
2024-01-30T13:06:02.495Z,5.45
2024-01-30T13:07:07.428Z,5.70
2024-01-30T13:08:09.232Z,5.70
2024-01-30T13:10:13.051Z,5.50
2024-01-30T13:11:20.855Z,5.50
2024-01-30T13:12:23.480Z,5.85
2024-01-30T13:14:27.341Z,5.18
2024-01-30T13:15:29.303Z,5.10
2024-01-30T13:16:31.394Z,5.38
2024-01-30T13:17:34.183Z,5.35
2024-01-30T13:18:36.011Z,4.82
2024-01-30T13:19:40.221Z,5.03
2024-01-30T13:20:42.234Z,5.20
2024-01-30T13:21:44.173Z,6.15
2024-01-30T13:22:47.191Z,5.47
2024-01-30T13:23:48.998Z,5.13
2024-01-30T13:25:58.848Z,5.18
2024-01-30T13:27:00.724Z,5.43
2024-01-30T13:28:04.011Z,5.63
2024-01-30T13:29:05.938Z,5.95
2024-01-30T13:30:12.098Z,5.60
2024-01-30T13:31:15.770Z,5.55
2024-01-30T13:32:17.601Z,5.32
2024-01-30T13:33:19.538Z,5.43
2024-01-30T13:34:21.373Z,5.63
2024-01-30T13:35:23.207Z,5.90
2024-01-30T13:36:25.187Z,5.20
2024-01-30T13:37:27.115Z,5.80
2024-01-30T13:38:28.946Z,5.45
2024-01-30T13:39:33.746Z,5.55
2024-01-30T13:40:40.694Z,5.55
2024-01-30T13:41:43.429Z,5.50
2024-01-30T13:42:45.360Z,5.35
2024-01-30T13:45:51.474Z,4.93
2024-01-30T13:46:53.395Z,5.00
2024-01-30T13:48:59.865Z,4.95
2024-01-30T13:50:01.837Z,4.78
2024-01-30T13:51:06.228Z,4.82
2024-01-30T13:52:08.141Z,4.60
2024-01-30T13:54:11.691Z,5.35
2024-01-30T13:55:14.179Z,4.60
2024-01-30T13:56:16.177Z,4.63
2024-01-30T13:58:19.675Z,5.05
2024-01-30T13:59:25.368Z,4.82
2024-01-30T14:12:47.075Z,5.72
2024-01-30T14:13:49.511Z,5.60
2024-01-30T14:14:51.261Z,5.88
2024-01-30T14:15:57.148Z,4.82
2024-01-30T14:16:59.208Z,5.75
2024-01-30T14:18:01.966Z,5.10
2024-01-30T14:19:06.153Z,5.38
2024-01-30T14:20:11.824Z,5.45
2024-01-30T14:21:13.677Z,5.15
2024-01-30T14:22:15.535Z,5.20
2024-01-30T14:23:19.068Z,5.20
2024-01-30T14:24:20.817Z,5.03
2024-01-30T14:26:27.127Z,5.00
2024-01-30T14:27:28.800Z,5.32
2024-01-30T14:28:32.826Z,5.05
2024-01-30T14:29:35.629Z,5.28
2024-01-30T14:30:37.375Z,5.15
2024-01-30T14:32:45.832Z,5.50
2024-01-30T14:33:48.095Z,5.65
2024-01-30T14:34:49.982Z,5.20
2024-01-30T14:35:52.872Z,5.20
2024-01-30T14:36:54.709Z,5.35
2024-01-30T14:37:59.140Z,5.15
2024-01-30T14:40:03.367Z,4.90
2024-01-30T14:41:05.776Z,5.03
2024-01-30T14:42:08.535Z,4.97
2024-01-30T14:43:10.399Z,5.13
2024-01-30T14:44:15.207Z,5.32
2024-01-30T14:45:17.593Z,4.93
2024-01-30T14:46:19.446Z,4.85
2024-01-30T14:47:23.685Z,4.70
2024-01-30T14:48:25.598Z,4.88
2024-01-30T14:49:27.470Z,4.70
2024-01-30T14:50:31.977Z,4.50
2024-01-30T14:51:34.082Z,5.10
2024-01-30T14:52:36.061Z,4.90
2024-01-30T14:53:38.040Z,4.90
2024-01-30T14:54:42.357Z,4.85
2024-01-30T14:55:44.942Z,4.57
2024-01-30T14:56:47.035Z,4.50
2024-01-30T14:57:50.309Z,4.60
2024-01-30T14:58:52.105Z,4.75
2024-01-30T15:00:55.432Z,4.73
2024-01-30T15:02:00.743Z,4.75
2024-01-30T15:03:02.440Z,4.70
2024-01-30T15:05:06.260Z,4.82
2024-01-30T15:06:09.935Z,4.90
2024-01-30T15:07:19.847Z,5.18
2024-01-30T15:08:24.538Z,5.05
2024-01-30T15:09:30.193Z,4.53
2024-01-30T15:10:32.593Z,4.57
2024-01-30T15:11:34.967Z,4.60
2024-01-30T15:12:37.617Z,5.35
2024-01-30T15:13:39.810Z,5.55
2024-01-30T15:14:41.475Z,5.28
2024-01-30T15:15:43.344Z,5.43
2024-01-30T15:16:48.098Z,7.10
2024-01-30T15:17:49.963Z,7.60
2024-01-30T15:19:56.216Z,11.25
2024-01-30T15:20:58.029Z,11.43
2024-01-30T15:23:03.968Z,8.75
2024-01-30T15:24:06.112Z,8.95
2024-01-30T15:25:07.951Z,8.38
2024-01-30T15:26:09.712Z,7.80
2024-01-30T15:28:15.865Z,6.55
2024-01-30T15:29:23.744Z,7.07
2024-01-30T15:30:28.868Z,6.80
2024-01-30T15:31:30.692Z,6.30
2024-01-30T15:32:32.925Z,6.40
2024-01-30T15:33:34.914Z,6.85
2024-01-30T15:34:36.705Z,6.85
2024-01-30T15:35:39.465Z,6.65
2024-01-30T15:36:41.374Z,6.53
2024-01-30T15:37:43.066Z,6.63
2024-01-30T15:39:48.746Z,5.88
2024-01-30T15:40:53.063Z,6.80
2024-01-30T15:41:54.960Z,6.82
2024-01-30T15:43:58.256Z,6.88
2024-01-30T15:46:02.388Z,5.75
2024-01-30T15:47:04.383Z,6.85
2024-01-30T15:48:06.868Z,6.20
2024-01-30T15:49:08.999Z,6.68
2024-01-30T15:50:13.513Z,6.68
2024-01-30T15:51:16.188Z,5.82
2024-01-30T15:52:21.292Z,5.88
2024-01-30T15:53:23.258Z,5.80
2024-01-30T15:54:25.016Z,5.80
2024-01-30T15:55:26.792Z,6.30
2024-01-30T15:56:28.604Z,6.00
2024-01-30T15:57:33.107Z,6.20
2024-01-30T15:58:34.854Z,5.97
2024-01-30T15:59:39.780Z,6.25
2024-01-30T16:00:42.908Z,5.75
2024-01-30T16:01:50.137Z,5.07